IPG2015 KCVC-KATL
Flight info
| Callsign | IPG2015 |
|---|---|
| Flight time | N/A |
| Altitude | 8000 |
| Route | ZELOW |
| Aircraft | SF50/L-SDGRWY/L |
Departure
| Time | 2026-05-07 01:33 |
|---|---|
| Airport | Covington Municipal Airport (KCVC) |
Arrival
| Time | N/A |
|---|---|
| Airport | Hartsfield Jackson Atlanta International Airport (KATL) |
| Time | Latitude | Longitude | Altitude | Speed | Heading |
|---|---|---|---|---|---|
| 2026-05-07 01:18 | 33.63399 | -83.85246 | 792 ft | 0 kts | 353° |
| 2026-05-07 01:24 | 33.63398 | -83.85246 | 783 ft | 0 kts | 2° |
| 2026-05-07 01:27 | 33.63400 | -83.85238 | 783 ft | 0 kts | 107° |
| 2026-05-07 01:27 | 33.63396 | -83.85231 | 774 ft | 3 kts | 140° |
| 2026-05-07 01:27 | 33.63352 | -83.85187 | 784 ft | 10 kts | 107° |
| 2026-05-07 01:27 | 33.63345 | -83.85125 | 785 ft | 6 kts | 94° |
| 2026-05-07 01:28 | 33.63342 | -83.85092 | 785 ft | 2 kts | 101° |
| 2026-05-07 01:28 | 33.63341 | -83.85090 | 785 ft | 0 kts | 101° |
| 2026-05-07 01:28 | 33.63341 | -83.85087 | 785 ft | 3 kts | 95° |
| 2026-05-07 01:28 | 33.63337 | -83.85024 | 786 ft | 11 kts | 95° |
| 2026-05-07 01:29 | 33.63329 | -83.84912 | 787 ft | 16 kts | 94° |
| 2026-05-07 01:29 | 33.63316 | -83.84764 | 789 ft | 18 kts | 95° |
| 2026-05-07 01:29 | 33.63306 | -83.84631 | 790 ft | 14 kts | 95° |
| 2026-05-07 01:29 | 33.63297 | -83.84524 | 791 ft | 12 kts | 95° |
| 2026-05-07 01:30 | 33.63289 | -83.84434 | 792 ft | 10 kts | 97° |
| 2026-05-07 01:30 | 33.63284 | -83.84357 | 793 ft | 8 kts | 93° |
| 2026-05-07 01:30 | 33.63277 | -83.84294 | 794 ft | 7 kts | 98° |
| 2026-05-07 01:30 | 33.63272 | -83.84244 | 795 ft | 5 kts | 96° |
| 2026-05-07 01:31 | 33.63269 | -83.84204 | 795 ft | 5 kts | 94° |
| 2026-05-07 01:31 | 33.63267 | -83.84149 | 796 ft | 8 kts | 94° |
| 2026-05-07 01:31 | 33.63258 | -83.84072 | 797 ft | 11 kts | 94° |
| 2026-05-07 01:31 | 33.63252 | -83.83977 | 798 ft | 12 kts | 95° |
| 2026-05-07 01:32 | 33.63246 | -83.83901 | 799 ft | 7 kts | 94° |
| 2026-05-07 01:32 | 33.63241 | -83.83862 | 799 ft | 3 kts | 111° |
| 2026-05-07 01:32 | 33.63209 | -83.83846 | 800 ft | 10 kts | 186° |
| 2026-05-07 01:32 | 33.63164 | -83.83912 | 799 ft | 21 kts | 276° |
| 2026-05-07 01:33 | 33.63208 | -83.84405 | 792 ft | 101 kts | 277° |
| 2026-05-07 01:33 | 33.63305 | -83.85421 | 1099 ft | 137 kts | 276° |
| 2026-05-07 01:33 | 33.63424 | -83.86587 | 1646 ft | 146 kts | 274° |
| 2026-05-07 01:33 | 33.63526 | -83.87843 | 2112 ft | 155 kts | 271° |
| 2026-05-07 01:34 | 33.63661 | -83.89051 | 2535 ft | 139 kts | 273° |
| 2026-05-07 01:34 | 33.63866 | -83.90166 | 2829 ft | 135 kts | 276° |
| 2026-05-07 01:34 | 33.64043 | -83.91267 | 3107 ft | 133 kts | 270° |
| 2026-05-07 01:34 | 33.64152 | -83.92360 | 3379 ft | 136 kts | 277° |
| 2026-05-07 01:35 | 33.64472 | -83.93424 | 3639 ft | 131 kts | 271° |
| 2026-05-07 01:35 | 33.64621 | -83.94490 | 3902 ft | 129 kts | 271° |
| 2026-05-07 01:35 | 33.64804 | -83.95538 | 4165 ft | 127 kts | 272° |
| 2026-05-07 01:35 | 33.64984 | -83.96566 | 4435 ft | 125 kts | 271° |
| 2026-05-07 01:36 | 33.65124 | -83.97586 | 4706 ft | 123 kts | 269° |
| 2026-05-07 01:36 | 33.65219 | -83.98599 | 4971 ft | 122 kts | 267° |
| 2026-05-07 01:36 | 33.65301 | -83.99612 | 5236 ft | 122 kts | 267° |
| 2026-05-07 01:36 | 33.65375 | -84.00627 | 5503 ft | 122 kts | 267° |
| 2026-05-07 01:37 | 33.65442 | -84.01637 | 5773 ft | 121 kts | 267° |
| 2026-05-07 01:37 | 33.65502 | -84.02643 | 6040 ft | 121 kts | 267° |
| 2026-05-07 01:37 | 33.65373 | -84.03593 | 6306 ft | 116 kts | 240° |
| 2026-05-07 01:37 | 33.64966 | -84.04415 | 6565 ft | 113 kts | 242° |
| 2026-05-07 01:38 | 33.64604 | -84.05250 | 6823 ft | 112 kts | 242° |
| 2026-05-07 01:38 | 33.64243 | -84.06079 | 7071 ft | 113 kts | 243° |
| 2026-05-07 01:38 | 33.63842 | -84.06995 | 6903 ft | 138 kts | 242° |
| 2026-05-07 01:38 | 33.63355 | -84.08102 | 6548 ft | 159 kts | 244° |
| 2026-05-07 01:39 | 33.63064 | -84.09406 | 6180 ft | 168 kts | 263° |
| 2026-05-07 01:39 | 33.63038 | -84.10830 | 5787 ft | 173 kts | 265° |
| 2026-05-07 01:39 | 33.63018 | -84.12293 | 5394 ft | 177 kts | 264° |
| 2026-05-07 01:39 | 33.63009 | -84.13775 | 5020 ft | 173 kts | 265° |
| 2026-05-07 01:40 | 33.63045 | -84.15092 | 4957 ft | 146 kts | 265° |